KABEKLDJ

Guest
Details From KABE - Lehigh Valley Intl
To KLDJ - LINDEN
Flight Number -
Tags generated
Created
Modified
Stats Distance 55 nm / 101 km
Max Altitude 3,300 ft / 1,006 m
Waypoints 3
Social Downloads 0
Likes 0
Share VATSIM

Download

Looking for another format? Having issues loading an existing format? Contact us
Advertisement - Login to hide

Notes

Basic altitude profile: - Ascent Rate: 2500ft/min - Ascent Speed: 250kts - Cruise Altitude: 35000ft - Cruise Speed: 420kts - Descent Rate: 1500ft/min - Descent Speed: 250kts Options: - Use NATs: yes - Use PACOTS: yes - Use low airways: yes - Use high airways: no

Route

KABE VANER KLDJ

ID Type Via Altitude Latitude Longitude Leg Dist Tot Dist Heading (true) Name
O KABE APT - 0 ft / 0 m 40.65218˚ -75.44047˚ - 0 nm - Lehigh Valley Intl
VANER FIX - 3,300 ft / 1,006 m 40.61878˚ -74.58356˚ 39 nm 39 nm 93° / 93° -
O KLDJ APT - 0 ft / 0 m 40.61745˚ -74.24459˚ 15 nm 54 nm 90° / 90° LINDEN

Altitude Profile

Advertisement - Login to hide

KABE

Details ICAO KABE (ABE)
Name Lehigh Valley Intl
Region United States
Timezone America/New_York (UTC-5.0)
Stats Elevation 394 ft / 120 m (AMSL)
Location 40.652185° -75.440472°
Runways 2
Magnetic Variation 12.129° W

METAR

KABE 160137Z 25006KT 10SM SCT020 OVC080 M06/M09 A2992 RMK AO2 T10611089

Decode

TAF

TAF AMD KABE 160123Z 1601/1624 25004KT P6SM OVC022 TEMPO 1602/1604 SCT022 BKN050 FM160400 25006KT P6SM SCT050 FM161600 25010G18KT P6SM BKN040 FM162300 30006KT P6SM BKN040

Decode

Departure Runways

ID Width Length Bearing (true) Bearing (mag) Surface Threshold Offset Overrun Length
06 150 ft / 46 m 7,595 ft / 2,315 m 51.15° 63.28° Asphalt 0 ft / 0 m 0 ft / 0 m
13 150 ft / 46 m 5,790 ft / 1,765 m 123.09° 135.22° Asphalt 0 ft / 0 m 0 ft / 0 m
24 150 ft / 46 m 7,595 ft / 2,315 m 231.17° 243.30° Asphalt 500 ft / 152 m 0 ft / 0 m
31 150 ft / 46 m 5,790 ft / 1,765 m 303.10° 315.23° Asphalt 0 ft / 0 m 0 ft / 0 m

KLDJ

Details ICAO KLDJ (LDJ)
Name LINDEN
Region United States
Timezone America/New_York (UTC-5.0)
Stats Elevation 23 ft / 7 m (AMSL)
Location 40.617449° -74.244595°
Runways 1
Magnetic Variation 12.754° W

METAR

KLDJ 160135Z AUTO 00000KT 10SM SCT009 OVC080 M04/M06 A2993 RMK AO2 P0001 T10451065

Decode

TAF

Not found

Destination Runways

ID Width Length Bearing (true) Bearing (mag) Surface Threshold Offset Overrun Length
09 98 ft / 30 m 4,131 ft / 1,259 m 75.60° 88.35° Asphalt 459 ft / 140 m 200 ft / 61 m
27 98 ft / 30 m 4,131 ft / 1,259 m 255.61° 268.36° Asphalt 545 ft / 166 m 200 ft / 61 m